createdAt,value
2022-09-09T00:03:12.469Z,8.40
2022-09-09T00:07:06.716Z,8.90
2022-09-09T00:10:46.480Z,8.60
2022-09-09T00:13:59.715Z,12.00
2022-09-09T00:17:58.096Z,8.50
2022-09-09T00:21:18.995Z,5.50
2022-09-09T00:24:55.777Z,7.20
2022-09-09T00:28:28.017Z,6.00
2022-09-09T00:32:29.594Z,12.20
2022-09-09T00:35:45.616Z,5.30
2022-09-09T00:39:38.456Z,4.90
2022-09-09T00:43:22.214Z,7.60
2022-09-09T00:46:51.498Z,8.80
2022-09-09T00:50:16.475Z,7.30
2022-09-09T00:54:13.738Z,11.30
2022-09-09T00:57:28.966Z,5.90
2022-09-09T01:01:13.054Z,7.20
2022-09-09T01:04:37.378Z,4.00
2022-09-09T01:08:29.440Z,13.50
2022-09-09T01:11:56.572Z,4.80
2022-09-09T01:15:32.431Z,13.00
2022-09-09T01:19:01.123Z,9.20
2022-09-09T01:22:46.480Z,10.00
2022-09-09T01:26:22.175Z,10.30
2022-09-09T01:29:49.875Z,8.20
2022-09-09T01:33:26.392Z,5.20
2022-09-09T01:37:11.631Z,12.20
2022-09-09T01:40:40.372Z,13.30
2022-09-09T01:44:17.213Z,12.40
2022-09-09T01:47:54.779Z,4.90
2022-09-09T01:51:31.150Z,5.00
2022-09-09T01:55:08.893Z,4.80
2022-09-09T01:58:48.841Z,5.90
2022-09-09T02:02:47.602Z,6.80
2022-09-09T02:06:23.114Z,11.10
2022-09-09T02:09:36.471Z,5.20
2022-09-09T02:13:14.499Z,5.10
2022-09-09T02:17:24.161Z,4.80
2022-09-09T02:20:44.511Z,5.40
2022-09-09T02:24:22.455Z,4.40
2022-09-09T02:27:56.887Z,2.60
2022-09-09T02:31:36.931Z,7.40
2022-09-09T02:35:21.589Z,8.80
2022-09-09T02:38:51.716Z,4.20
2022-09-09T02:42:23.496Z,5.10
2022-09-09T02:46:22.262Z,5.00
2022-09-09T02:49:45.114Z,6.80
2022-09-09T02:53:21.836Z,12.00
2022-09-09T02:56:55.532Z,5.80
2022-09-09T03:00:29.152Z,5.80
2022-09-09T03:04:06.633Z,6.30
2022-09-09T03:07:40.974Z,3.40
2022-09-09T03:11:19.346Z,6.70
2022-09-09T03:14:54.375Z,5.20
2022-09-09T03:18:31.159Z,6.10
2022-09-09T03:22:10.913Z,2.70
2022-09-09T03:25:49.698Z,3.20
2022-09-09T03:29:21.491Z,4.70
2022-09-09T03:33:00.435Z,4.20
2022-09-09T03:36:35.657Z,8.40
2022-09-09T03:40:13.030Z,3.00
2022-09-09T03:43:49.065Z,4.10
2022-09-09T03:47:25.546Z,3.70
2022-09-09T03:51:03.592Z,4.90
2022-09-09T03:54:39.192Z,4.00
2022-09-09T03:58:17.011Z,4.70
2022-09-09T04:01:52.719Z,4.70
2022-09-09T04:05:30.114Z,2.90
2022-09-09T04:09:06.430Z,7.10
2022-09-09T04:12:44.907Z,4.10
2022-09-09T04:16:19.984Z,2.90
2022-09-09T04:19:58.274Z,5.30
2022-09-09T04:23:35.276Z,5.10
2022-09-09T04:27:10.549Z,4.90
2022-09-09T04:30:48.316Z,4.20
2022-09-09T04:34:24.155Z,5.90
2022-09-09T04:38:00.832Z,6.40
2022-09-09T04:41:38.816Z,4.60
2022-09-09T04:45:15.876Z,3.80
2022-09-09T04:48:52.276Z,2.90
2022-09-09T04:52:28.344Z,3.90
2022-09-09T04:56:09.495Z,3.90
2022-09-09T04:59:42.055Z,5.30
2022-09-09T05:03:18.312Z,4.70
2022-09-09T05:06:55.096Z,4.90
2022-09-09T05:10:39.189Z,5.10
2022-09-09T05:14:09.169Z,4.40
2022-09-09T05:17:45.352Z,6.50
2022-09-09T05:21:24.215Z,5.80
2022-09-09T05:24:59.756Z,6.00
2022-09-09T05:28:37.337Z,6.30
2022-09-09T05:32:15.460Z,3.60
2022-09-09T05:35:57.770Z,9.70
2022-09-09T05:39:27.236Z,11.70
2022-09-09T05:43:06.465Z,5.60
2022-09-09T05:46:40.833Z,7.80
2022-09-09T05:50:23.499Z,3.40
2022-09-09T05:53:56.293Z,7.80
2022-09-09T05:57:30.741Z,5.80
2022-09-09T06:01:11.550Z,7.20
2022-09-09T06:04:44.016Z,6.80
2022-09-09T06:08:21.143Z,9.40
2022-09-09T06:11:59.318Z,7.70
2022-09-09T06:15:38.558Z,5.10
2022-09-09T06:19:13.925Z,5.10
2022-09-09T06:22:47.997Z,6.70
2022-09-09T06:26:27.884Z,4.90
2022-09-09T06:30:02.050Z,8.00
2022-09-09T06:33:42.288Z,2.30
2022-09-09T06:37:15.332Z,5.90
2022-09-09T06:40:55.496Z,5.40
2022-09-09T06:44:39.571Z,4.30
2022-09-09T06:48:11.764Z,7.50
2022-09-09T06:51:50.149Z,3.60
2022-09-09T06:55:32.142Z,6.70
2022-09-09T06:58:59.440Z,5.10
2022-09-09T07:02:42.444Z,9.50
2022-09-09T07:06:19.190Z,3.80
2022-09-09T07:09:47.678Z,7.30
2022-09-09T07:13:40.809Z,4.10
2022-09-09T07:17:01.569Z,4.50
2022-09-09T07:24:13.955Z,4.70
2022-09-09T07:27:50.688Z,2.50
2022-09-09T07:31:31.975Z,5.70
2022-09-09T07:35:04.116Z,5.10
2022-09-09T07:38:46.888Z,4.80
2022-09-09T07:42:17.677Z,6.60
2022-09-09T07:46:00.117Z,7.80
2022-09-09T07:49:50.531Z,8.70
2022-09-09T07:53:08.331Z,4.30
2022-09-09T07:57:09.529Z,5.90
2022-09-09T08:00:23.306Z,7.90
2022-09-09T08:04:04.589Z,4.50
2022-09-09T08:07:35.710Z,5.10
2022-09-09T08:11:15.700Z,4.00
2022-09-09T08:14:49.821Z,4.20
2022-09-09T08:18:25.381Z,8.60
2022-09-09T08:22:03.075Z,6.50
2022-09-09T08:25:38.975Z,6.40
2022-09-09T08:29:17.254Z,8.00
2022-09-09T08:32:53.966Z,6.00
2022-09-09T08:36:31.127Z,4.90
2022-09-09T08:40:10.518Z,9.80
2022-09-09T08:43:49.168Z,3.30
2022-09-09T08:47:33.216Z,7.20
2022-09-09T08:51:03.190Z,6.10
2022-09-09T08:54:51.694Z,7.50
2022-09-09T08:58:23.580Z,5.80
2022-09-09T09:02:16.481Z,4.50
2022-09-09T09:06:04.390Z,4.90
2022-09-09T09:12:56.348Z,6.40
2022-09-09T09:16:37.816Z,4.80
2022-09-09T09:20:16.270Z,7.90
2022-09-09T09:27:45.203Z,3.90
2022-09-09T09:31:08.111Z,7.40
2022-09-09T09:34:35.376Z,11.70
2022-09-09T09:41:49.059Z,9.90
2022-09-09T09:45:46.773Z,7.90
2022-09-09T09:49:06.706Z,10.80
2022-09-09T09:52:43.526Z,6.00
2022-09-09T09:56:17.325Z,6.40
2022-09-09T10:00:06.546Z,9.90
2022-09-09T10:03:38.644Z,10.20
2022-09-09T10:07:25.223Z,8.70
2022-09-09T10:11:02.035Z,9.80
2022-09-09T10:14:28.620Z,8.60
2022-09-09T10:18:12.138Z,9.90
2022-09-09T10:21:51.675Z,10.20
2022-09-09T10:25:35.023Z,12.80
2022-09-09T10:32:32.744Z,10.20
2022-09-09T10:36:30.682Z,8.60
2022-09-09T10:39:43.979Z,8.10
2022-09-09T10:43:52.322Z,7.50
2022-09-09T10:47:01.817Z,9.30
2022-09-09T10:51:04.335Z,6.80
2022-09-09T10:59:26.168Z,10.60
2022-09-09T11:03:17.316Z,13.90
2022-09-09T11:06:38.943Z,10.20
2022-09-09T11:10:26.474Z,17.90
2022-09-09T11:14:07.635Z,11.70
2022-09-09T11:17:25.913Z,16.30
2022-09-09T11:21:05.196Z,15.10
2022-09-09T11:24:52.035Z,16.90
2022-09-09T11:28:23.832Z,16.20
2022-09-09T11:32:02.632Z,15.50
2022-09-09T11:35:31.642Z,15.20
2022-09-09T11:39:20.073Z,16.60
2022-09-09T11:42:43.420Z,15.20
2022-09-09T11:46:24.326Z,22.80
2022-09-09T11:49:55.676Z,54.40
2022-09-09T11:53:33.424Z,52.00
2022-09-09T11:57:37.203Z,24.30
2022-09-09T12:00:51.384Z,24.70
2022-09-09T12:04:30.172Z,23.10
2022-09-09T12:08:05.707Z,14.70
2022-09-09T12:11:41.305Z,14.30
2022-09-09T12:15:22.352Z,11.20
2022-09-09T12:19:27.055Z,10.50
2022-09-09T12:22:46.936Z,9.80
2022-09-09T12:26:32.764Z,11.40
2022-09-09T12:29:56.918Z,7.70
2022-09-09T12:33:22.958Z,7.50
2022-09-09T12:37:08.201Z,9.50
2022-09-09T12:40:40.162Z,8.20
2022-09-09T12:44:12.510Z,8.60
2022-09-09T12:48:09.699Z,13.60
2022-09-09T12:51:32.349Z,6.30
2022-09-09T12:55:06.291Z,8.70
2022-09-09T12:58:41.228Z,9.50
2022-09-09T13:02:31.481Z,7.90
2022-09-09T13:06:04.133Z,7.70
2022-09-09T13:09:34.348Z,9.80
2022-09-09T13:13:17.269Z,9.80
2022-09-09T13:16:43.665Z,11.70
2022-09-09T13:20:22.861Z,9.90
2022-09-09T13:23:57.163Z,12.00
2022-09-09T13:27:41.289Z,9.80
2022-09-09T13:31:32.016Z,11.90
2022-09-09T13:34:59.856Z,8.20
2022-09-09T13:38:27.725Z,11.60
2022-09-09T13:42:02.477Z,8.40
2022-09-09T13:45:39.485Z,10.80
2022-09-09T13:49:18.083Z,10.00
2022-09-09T13:52:55.188Z,10.50
2022-09-09T13:56:28.650Z,10.60
2022-09-09T14:00:08.190Z,12.10
2022-09-09T14:03:42.078Z,11.60
2022-09-09T14:07:20.108Z,10.70
2022-09-09T14:10:57.141Z,12.20
2022-09-09T14:14:32.377Z,9.70
2022-09-09T14:18:13.399Z,10.80
2022-09-09T14:21:46.472Z,8.70
2022-09-09T14:25:34.154Z,10.20
2022-09-09T14:28:59.926Z,11.60
2022-09-09T14:32:36.494Z,9.20
2022-09-09T14:36:13.356Z,9.30
2022-09-09T14:39:55.490Z,10.20
2022-09-09T14:43:28.953Z,11.00
2022-09-09T14:47:04.708Z,8.80
2022-09-09T14:50:44.298Z,7.80
2022-09-09T14:54:24.350Z,10.60
2022-09-09T14:57:54.081Z,10.60
2022-09-09T15:01:33.105Z,9.10
2022-09-09T15:05:08.520Z,8.50
2022-09-09T15:08:46.627Z,9.70
2022-09-09T15:12:22.476Z,9.30
2022-09-09T15:16:11.925Z,10.80
2022-09-09T15:19:35.108Z,10.60
2022-09-09T15:23:12.251Z,11.30
2022-09-09T15:26:48.607Z,10.40
2022-09-09T15:30:25.603Z,10.50
2022-09-09T15:34:08.168Z,9.10
2022-09-09T15:37:38.783Z,8.60
2022-09-09T15:41:17.167Z,12.10
2022-09-09T15:44:52.648Z,7.50
2022-09-09T15:48:35.877Z,9.90
2022-09-09T15:52:06.211Z,6.60
2022-09-09T15:55:45.236Z,9.50
2022-09-09T15:59:19.750Z,11.50
2022-09-09T16:02:56.403Z,10.30
2022-09-09T16:06:34.455Z,9.80
2022-09-09T16:10:12.415Z,8.60
2022-09-09T16:13:51.192Z,9.70
2022-09-09T16:17:23.628Z,9.70
2022-09-09T16:21:00.721Z,11.70
2022-09-09T16:24:37.639Z,10.80
2022-09-09T16:28:14.187Z,11.00
2022-09-09T16:31:52.059Z,9.10
2022-09-09T16:35:27.963Z,15.10
2022-09-09T16:39:07.803Z,9.90
2022-09-09T16:42:41.428Z,14.10
2022-09-09T16:46:20.857Z,14.90
2022-09-09T16:49:54.948Z,12.50
2022-09-09T16:53:34.232Z,12.60
2022-09-09T16:57:08.520Z,15.10
2022-09-09T17:00:47.638Z,13.50
2022-09-09T17:04:29.259Z,16.70
2022-09-09T17:08:03.296Z,17.50
2022-09-09T17:11:36.659Z,16.40
2022-09-09T17:15:12.585Z,16.60
2022-09-09T17:18:52.123Z,14.20
2022-09-09T17:23:17.908Z,13.80
2022-09-09T17:26:20.586Z,17.80
2022-09-09T17:29:54.588Z,15.10
2022-09-09T17:33:39.568Z,17.40
2022-09-09T17:37:08.901Z,14.70
2022-09-09T17:40:48.953Z,16.40
2022-09-09T17:44:25.848Z,17.70
2022-09-09T17:47:58.439Z,17.00
2022-09-09T17:52:00.030Z,15.70
2022-09-09T17:55:13.182Z,16.30
2022-09-09T17:58:50.910Z,18.90
2022-09-09T18:02:25.813Z,17.20
2022-09-09T18:06:08.908Z,17.80
2022-09-09T18:09:50.297Z,17.00
2022-09-09T18:13:17.766Z,17.80
2022-09-09T18:16:54.175Z,16.40
2022-09-09T18:20:31.875Z,22.10
2022-09-09T18:24:08.547Z,15.60
2022-09-09T18:27:46.561Z,18.40
2022-09-09T18:31:31.048Z,20.20
2022-09-09T18:35:14.169Z,19.10
2022-09-09T18:38:36.091Z,20.60
2022-09-09T18:42:16.320Z,14.90
2022-09-09T18:49:33.859Z,16.60
2022-09-09T18:53:07.540Z,19.50
2022-09-09T18:56:49.937Z,17.60
2022-09-09T19:00:33.252Z,17.90
2022-09-09T19:04:12.899Z,18.80
2022-09-09T19:07:37.760Z,16.20
2022-09-09T19:11:09.083Z,16.80
2022-09-09T19:14:45.170Z,18.90
2022-09-09T19:18:18.931Z,20.10
2022-09-09T19:21:58.071Z,15.80
2022-09-09T19:25:38.542Z,17.10
2022-09-09T19:29:11.972Z,11.00
2022-09-09T19:32:54.190Z,18.40
2022-09-09T19:36:24.416Z,19.40
2022-09-09T19:40:01.565Z,19.10
2022-09-09T19:43:35.915Z,15.50
2022-09-09T19:47:14.650Z,18.90
2022-09-09T19:50:49.647Z,16.50
2022-09-09T19:54:26.408Z,19.70
2022-09-09T19:58:04.581Z,14.20
2022-09-09T20:01:44.755Z,18.20
2022-09-09T20:05:19.396Z,18.30
2022-09-09T20:08:54.506Z,18.40
2022-09-09T20:12:31.487Z,20.00
2022-09-09T20:16:10.715Z,17.60
2022-09-09T20:19:44.015Z,20.00
2022-09-09T20:23:21.718Z,21.80
2022-09-09T20:26:57.448Z,20.30
2022-09-09T20:30:38.393Z,25.60
2022-09-09T20:34:14.013Z,18.20
2022-09-09T20:37:48.701Z,17.40
2022-09-09T20:41:29.948Z,21.60
2022-09-09T20:45:01.487Z,18.90
2022-09-09T20:48:38.456Z,18.40
2022-09-09T20:52:15.750Z,20.80
2022-09-09T20:55:52.557Z,21.10
2022-09-09T20:59:34.867Z,21.70
2022-09-09T21:03:06.054Z,19.80
2022-09-09T21:06:42.345Z,20.00
2022-09-09T21:10:21.088Z,20.20
2022-09-09T21:13:56.747Z,19.80
2022-09-09T21:17:33.844Z,18.40
2022-09-09T21:21:09.347Z,20.30
2022-09-09T21:24:46.962Z,18.70
2022-09-09T21:28:23.412Z,20.40
2022-09-09T21:32:03.474Z,21.80
2022-09-09T21:35:39.807Z,20.70
2022-09-09T21:39:13.527Z,21.60
2022-09-09T21:42:50.188Z,20.40
2022-09-09T21:46:28.353Z,19.60
2022-09-09T21:50:04.248Z,20.80
2022-09-09T21:53:40.891Z,19.80
2022-09-09T22:00:54.391Z,20.10
2022-09-09T22:04:30.839Z,21.80
2022-09-09T22:08:08.682Z,17.40
2022-09-09T22:11:44.582Z,18.20
2022-09-09T22:15:21.898Z,18.60
2022-09-09T22:19:00.668Z,13.90
2022-09-09T22:22:35.327Z,18.90
2022-09-09T22:26:11.745Z,14.20
2022-09-09T22:29:48.638Z,18.50
2022-09-09T22:33:27.462Z,14.30
2022-09-09T22:37:03.487Z,16.80
2022-09-09T22:40:41.096Z,19.50
2022-09-09T22:44:15.899Z,16.60
2022-09-09T22:47:52.686Z,17.00
2022-09-09T22:51:30.143Z,14.90
2022-09-09T22:55:06.962Z,16.00
2022-09-09T22:58:43.760Z,19.00
2022-09-09T23:02:22.619Z,17.80
2022-09-09T23:05:59.505Z,19.30
2022-09-09T23:09:33.455Z,14.20
2022-09-09T23:13:10.597Z,13.90
2022-09-09T23:16:47.227Z,17.00
2022-09-09T23:20:26.700Z,15.10
2022-09-09T23:24:01.023Z,12.50
2022-09-09T23:27:40.196Z,11.70
2022-09-09T23:31:16.698Z,15.50
2022-09-09T23:34:51.197Z,16.40
2022-09-09T23:42:08.051Z,16.10
2022-09-09T23:45:41.516Z,17.60
2022-09-09T23:49:18.308Z,14.20
2022-09-09T23:52:54.907Z,17.20
2022-09-09T23:56:35.074Z,16.90
